createdAt,value
2023-02-07T00:02:52.005Z,-5.27
2023-02-07T00:05:54.471Z,-5.49
2023-02-07T00:08:58.432Z,-5.52
2023-02-07T00:12:00.884Z,-5.44
2023-02-07T00:15:04.625Z,-5.39
2023-02-07T00:18:07.146Z,-5.50
2023-02-07T00:21:17.258Z,-5.42
2023-02-07T00:24:19.785Z,-5.48
2023-02-07T00:27:22.028Z,-5.43
2023-02-07T00:30:24.606Z,-5.36
2023-02-07T00:33:26.804Z,-5.32
2023-02-07T00:36:32.609Z,-5.39
2023-02-07T00:39:34.803Z,-5.40
2023-02-07T00:42:37.291Z,-5.53
2023-02-07T00:45:39.767Z,-5.61
2023-02-07T00:48:42.877Z,-5.67
2023-02-07T00:51:45.309Z,-5.59
2023-02-07T00:54:48.854Z,-5.59
2023-02-07T00:57:51.028Z,-5.84
2023-02-07T01:00:53.633Z,-5.77
2023-02-07T01:03:56.364Z,-5.72
2023-02-07T01:06:58.876Z,-5.68
2023-02-07T01:10:01.098Z,-5.67
2023-02-07T01:13:03.715Z,-5.86
2023-02-07T01:16:06.894Z,-5.75
2023-02-07T01:19:11.583Z,-5.75
2023-02-07T01:22:13.788Z,-5.88
2023-02-07T01:25:16.278Z,-5.81
2023-02-07T01:28:18.505Z,-5.69
2023-02-07T01:31:22.224Z,-5.62
2023-02-07T01:34:24.532Z,-5.70
2023-02-07T01:37:27.521Z,-5.81
2023-02-07T01:40:30.846Z,-5.80
2023-02-07T01:43:34.658Z,-5.76
2023-02-07T01:46:37.002Z,-5.69
2023-02-07T01:49:39.570Z,-5.64
2023-02-07T01:52:42.661Z,-5.60
2023-02-07T01:55:49.360Z,-5.48
2023-02-07T01:58:53.227Z,-5.52
2023-02-07T02:01:56.910Z,-5.62
2023-02-07T02:04:59.793Z,-5.84
2023-02-07T02:08:02.053Z,-5.78
2023-02-07T02:11:11.137Z,-5.69
2023-02-07T02:14:37.646Z,-5.70
2023-02-07T02:18:10.622Z,-5.66
2023-02-07T02:21:31.088Z,-5.61
2023-02-07T02:24:48.505Z,-5.57
2023-02-07T02:28:19.397Z,-5.71
2023-02-07T02:31:34.483Z,-5.63
2023-02-07T02:34:51.872Z,-5.67
2023-02-07T02:38:04.636Z,-5.76
2023-02-07T02:41:15.604Z,-5.68
2023-02-07T02:44:32.255Z,-5.53
2023-02-07T02:47:37.138Z,-5.52
2023-02-07T02:50:39.797Z,-5.50
2023-02-07T02:53:52.083Z,-5.50
2023-02-07T02:57:31.033Z,-5.46
2023-02-07T03:00:58.279Z,-5.53
2023-02-07T03:04:07.051Z,-5.52
2023-02-07T03:07:20.065Z,-5.49
2023-02-07T03:10:46.681Z,-5.52
2023-02-07T03:14:08.792Z,-5.56
2023-02-07T03:17:30.480Z,-5.72
2023-02-07T03:20:43.725Z,-5.75
2023-02-07T03:23:47.730Z,-5.76
2023-02-07T03:26:54.738Z,-5.73
2023-02-07T03:30:01.562Z,-5.70
2023-02-07T03:33:09.933Z,-5.77
2023-02-07T03:36:21.918Z,-5.86
2023-02-07T03:39:25.410Z,-5.86
2023-02-07T03:42:39.046Z,-5.90
2023-02-07T03:45:41.757Z,-5.87
2023-02-07T03:48:43.955Z,-6.04
2023-02-07T03:51:48.029Z,-5.96
2023-02-07T03:54:50.257Z,-5.97
2023-02-07T03:57:52.723Z,-6.13
2023-02-07T04:00:55.169Z,-6.20
2023-02-07T04:03:57.774Z,-6.20
2023-02-07T04:07:00.020Z,-6.10
2023-02-07T04:10:03.400Z,-6.13
2023-02-07T04:13:05.552Z,-6.10
2023-02-07T04:16:08.099Z,-6.12
2023-02-07T04:19:10.296Z,-6.14
2023-02-07T04:22:12.759Z,-6.12
2023-02-07T04:25:14.996Z,-6.08
2023-02-07T04:28:17.439Z,-6.13
2023-02-07T04:31:19.664Z,-6.34
2023-02-07T04:34:22.151Z,-6.31
2023-02-07T04:37:24.296Z,-6.18
2023-02-07T04:40:26.721Z,-6.15
2023-02-07T04:43:29.292Z,-6.15
2023-02-07T04:46:31.793Z,-6.10
2023-02-07T04:49:34.733Z,-6.10
2023-02-07T04:52:37.658Z,-6.14
2023-02-07T04:55:40.157Z,-6.18
2023-02-07T04:58:42.902Z,-6.17
2023-02-07T05:01:45.171Z,-6.16
2023-02-07T05:04:47.700Z,-6.18
2023-02-07T05:07:50.141Z,-6.13
2023-02-07T05:10:54.929Z,-6.16
2023-02-07T05:13:57.226Z,-6.20
2023-02-07T05:16:59.755Z,-6.12
2023-02-07T05:20:02.432Z,-6.10
2023-02-07T05:23:04.878Z,-6.06
2023-02-07T05:26:07.063Z,-6.11
2023-02-07T05:29:09.556Z,-5.99
2023-02-07T05:32:34.216Z,-5.94
2023-02-07T05:35:43.117Z,-6.02
2023-02-07T05:38:45.242Z,-5.97
2023-02-07T05:41:47.767Z,-5.99
2023-02-07T05:44:49.965Z,-6.15
2023-02-07T05:47:52.412Z,-6.02
2023-02-07T05:50:54.561Z,-6.10
2023-02-07T05:53:57.104Z,-6.13
2023-02-07T05:56:59.269Z,-6.16
2023-02-07T06:00:01.974Z,-6.11
2023-02-07T06:03:13.859Z,-6.12
2023-02-07T06:06:16.550Z,-6.02
2023-02-07T06:09:18.830Z,-6.03
2023-02-07T06:12:21.285Z,-6.10
2023-02-07T06:15:23.719Z,-6.09
2023-02-07T06:18:26.194Z,-6.10
2023-02-07T06:21:44.313Z,-6.14
2023-02-07T06:24:48.460Z,-6.19
2023-02-07T06:27:50.904Z,-6.15
2023-02-07T06:30:53.664Z,-6.09
2023-02-07T06:33:55.846Z,-6.12
2023-02-07T06:36:58.358Z,-6.13
2023-02-07T06:40:00.702Z,-6.14
2023-02-07T06:43:03.235Z,-6.07
2023-02-07T06:46:06.193Z,-6.09
2023-02-07T06:49:08.702Z,-6.10
2023-02-07T06:52:11.151Z,-6.08
2023-02-07T06:55:13.862Z,-6.08
2023-02-07T06:58:16.452Z,-6.08
2023-02-07T07:01:20.284Z,-5.99
2023-02-07T07:04:22.618Z,-6.01
2023-02-07T07:07:25.100Z,-6.00
2023-02-07T07:10:28.393Z,-5.97
2023-02-07T07:13:30.922Z,-5.97
2023-02-07T07:16:33.135Z,-6.01
2023-02-07T07:19:35.660Z,-5.85
2023-02-07T07:22:38.172Z,-5.77
2023-02-07T07:25:41.024Z,-5.76
2023-02-07T07:28:43.506Z,-5.64
2023-02-07T07:31:48.809Z,-5.65
2023-02-07T07:34:51.068Z,-5.61
2023-02-07T07:37:53.546Z,-5.55
2023-02-07T07:40:55.818Z,-5.46
2023-02-07T07:43:58.297Z,-5.37
2023-02-07T07:47:00.732Z,-5.37
2023-02-07T07:50:03.338Z,-5.29
2023-02-07T07:53:05.563Z,-5.15
2023-02-07T07:56:08.030Z,-5.18
2023-02-07T07:59:19.988Z,-5.10
2023-02-07T08:02:26.106Z,-5.03
2023-02-07T08:05:28.549Z,-4.92
2023-02-07T08:08:30.814Z,-4.85
2023-02-07T08:11:33.287Z,-4.81
2023-02-07T08:14:35.470Z,-4.71
2023-02-07T08:17:37.997Z,-4.66
2023-02-07T08:20:40.758Z,-4.41
2023-02-07T08:23:43.409Z,-4.27
2023-02-07T08:26:45.689Z,-4.18
2023-02-07T08:29:48.499Z,-4.07
2023-02-07T08:32:51.986Z,-4.01
2023-02-07T08:35:54.492Z,-3.94
2023-02-07T08:38:56.765Z,-3.87
2023-02-07T08:42:00.557Z,-3.75
2023-02-07T08:45:04.672Z,-3.63
2023-02-07T08:48:07.237Z,-3.47
2023-02-07T08:51:10.447Z,-3.35
2023-02-07T08:54:12.973Z,-3.23
2023-02-07T08:57:16.020Z,-3.09
2023-02-07T09:00:19.027Z,-2.82
2023-02-07T09:03:21.838Z,-2.56
2023-02-07T09:06:25.125Z,-2.40
2023-02-07T09:09:27.502Z,-2.05
2023-02-07T09:12:32.485Z,-1.76
2023-02-07T09:15:34.718Z,-1.49
2023-02-07T09:18:40.585Z,-1.08
2023-02-07T09:21:42.866Z,-0.86
2023-02-07T09:24:45.530Z,-0.72
2023-02-07T09:27:49.877Z,-0.52
2023-02-07T09:30:53.266Z,-0.31
2023-02-07T09:33:55.755Z,-0.25
2023-02-07T09:36:59.058Z,-0.25
2023-02-07T09:40:04.396Z,-0.26
2023-02-07T09:43:29.514Z,-0.24
2023-02-07T09:46:43.349Z,-0.08
2023-02-07T09:50:00.523Z,0.07
2023-02-07T09:53:17.134Z,0.13
2023-02-07T09:56:24.193Z,0.20
2023-02-07T09:59:38.800Z,0.22
2023-02-07T10:03:00.198Z,0.26
2023-02-07T10:06:18.843Z,0.14
2023-02-07T10:09:26.710Z,0.02
2023-02-07T10:13:09.749Z,0.25
2023-02-07T10:16:37.181Z,0.50
2023-02-07T10:19:51.833Z,0.65
2023-02-07T10:23:06.240Z,0.76
2023-02-07T10:26:20.873Z,0.75
2023-02-07T10:29:41.930Z,0.57
2023-02-07T10:32:47.328Z,0.72
2023-02-07T10:35:51.211Z,0.49
2023-02-07T10:39:25.643Z,0.74
2023-02-07T10:42:31.632Z,0.78
2023-02-07T10:45:36.726Z,0.91
2023-02-07T10:48:39.325Z,0.90
2023-02-07T10:51:44.179Z,1.16
2023-02-07T10:54:53.217Z,1.31
2023-02-07T10:58:02.696Z,1.25
2023-02-07T11:01:21.890Z,1.25
2023-02-07T11:04:37.534Z,1.32
2023-02-07T11:07:47.610Z,1.26
2023-02-07T11:10:56.425Z,1.15
2023-02-07T11:14:06.527Z,1.31
2023-02-07T11:17:21.784Z,1.40
2023-02-07T11:20:40.410Z,1.49
2023-02-07T11:23:44.768Z,1.57
2023-02-07T11:27:16.953Z,1.62
2023-02-07T11:30:22.097Z,1.78
2023-02-07T11:33:34.413Z,1.81
2023-02-07T11:36:40.226Z,1.55
2023-02-07T11:39:44.693Z,1.67
2023-02-07T11:42:58.032Z,1.81
2023-02-07T11:46:05.821Z,1.69
2023-02-07T11:49:26.113Z,1.80
2023-02-07T11:52:33.240Z,1.86
2023-02-07T11:55:41.352Z,1.75
2023-02-07T11:58:49.237Z,1.84
2023-02-07T12:01:56.291Z,2.12
2023-02-07T12:05:15.464Z,2.28
2023-02-07T12:08:24.224Z,2.33
2023-02-07T12:11:37.406Z,2.47
2023-02-07T12:14:46.717Z,2.58
2023-02-07T12:18:11.130Z,2.53
2023-02-07T12:21:25.132Z,2.18
2023-02-07T12:24:39.926Z,2.25
2023-02-07T12:27:46.255Z,2.26
2023-02-07T12:30:53.888Z,2.53
2023-02-07T12:34:27.972Z,2.68
2023-02-07T12:37:58.212Z,2.55
2023-02-07T12:41:30.037Z,2.69
2023-02-07T12:44:48.341Z,2.69
2023-02-07T12:48:11.923Z,2.28
2023-02-07T12:51:21.657Z,2.19
2023-02-07T12:54:56.120Z,2.25
2023-02-07T12:58:17.679Z,1.94
2023-02-07T13:01:24.392Z,2.23
2023-02-07T13:05:12.340Z,2.27
2023-02-07T13:08:24.980Z,2.58
2023-02-07T13:11:56.969Z,2.76
2023-02-07T13:15:37.679Z,2.82
2023-02-07T13:18:59.309Z,2.65
2023-02-07T13:22:19.460Z,2.57
2023-02-07T13:25:27.897Z,2.75
2023-02-07T13:28:52.596Z,2.71
2023-02-07T13:32:00.321Z,2.73
2023-02-07T13:35:07.775Z,2.82
2023-02-07T13:38:49.765Z,2.99
2023-02-07T13:41:59.539Z,3.19
2023-02-07T13:45:56.418Z,3.14
2023-02-07T13:49:05.715Z,3.21
2023-02-07T13:52:23.428Z,3.37
2023-02-07T14:07:36.088Z,2.89
2023-02-07T14:10:53.678Z,2.79
2023-02-07T14:14:16.293Z,2.79
2023-02-07T14:17:27.904Z,2.70
2023-02-07T14:20:35.919Z,2.29
2023-02-07T14:24:05.421Z,2.22
2023-02-07T14:27:30.049Z,2.29
2023-02-07T14:30:59.016Z,2.46
2023-02-07T14:34:14.991Z,2.35
2023-02-07T14:37:36.312Z,2.21
2023-02-07T14:40:44.524Z,2.21
2023-02-07T14:44:08.055Z,2.23
2023-02-07T14:47:23.689Z,2.16
2023-02-07T14:50:33.602Z,1.95
2023-02-07T14:53:45.030Z,2.08
2023-02-07T14:57:35.922Z,2.09
2023-02-07T15:00:47.698Z,2.02
2023-02-07T15:04:06.457Z,1.84
2023-02-07T15:07:12.827Z,1.82
2023-02-07T15:10:22.384Z,1.84
2023-02-07T15:13:45.250Z,1.71
2023-02-07T15:16:48.393Z,1.65
2023-02-07T15:19:56.339Z,1.62
2023-02-07T15:23:02.294Z,1.41
2023-02-07T15:26:07.973Z,1.19
2023-02-07T15:29:26.466Z,1.16
2023-02-07T15:32:34.786Z,1.02
2023-02-07T15:35:41.689Z,1.00
2023-02-07T15:38:44.163Z,1.01
2023-02-07T15:41:49.371Z,0.97
2023-02-07T15:44:57.311Z,0.96
2023-02-07T15:48:03.906Z,0.90
2023-02-07T15:51:06.379Z,0.81
2023-02-07T15:54:17.330Z,0.73
2023-02-07T15:57:29.663Z,0.57
2023-02-07T16:00:40.057Z,0.54
2023-02-07T16:03:46.045Z,0.39
2023-02-07T16:07:05.499Z,0.31
2023-02-07T16:10:23.976Z,0.21
2023-02-07T16:13:29.342Z,0.14
2023-02-07T16:16:49.172Z,0.07
2023-02-07T16:19:51.904Z,-0.02
2023-02-07T16:23:01.941Z,-0.08
2023-02-07T16:26:04.687Z,-0.15
2023-02-07T16:29:08.242Z,-0.22
2023-02-07T16:32:14.891Z,-0.29
2023-02-07T16:35:26.848Z,-0.38
2023-02-07T16:38:30.772Z,-0.36
2023-02-07T16:41:36.687Z,-0.40
2023-02-07T16:44:39.116Z,-0.52
2023-02-07T16:47:42.309Z,-0.57
2023-02-07T16:50:44.563Z,-0.61
2023-02-07T16:53:47.336Z,-0.58
2023-02-07T16:56:54.034Z,-0.62
2023-02-07T16:59:58.097Z,-0.68
2023-02-07T17:03:02.192Z,-0.71
2023-02-07T17:06:09.382Z,-0.68
2023-02-07T17:09:23.903Z,-0.77
2023-02-07T17:12:27.246Z,-0.79
2023-02-07T17:15:30.309Z,-0.82
2023-02-07T17:18:33.225Z,-0.77
2023-02-07T17:21:35.406Z,-0.72
2023-02-07T17:24:39.041Z,-0.71
2023-02-07T17:27:42.026Z,-0.76
2023-02-07T17:30:45.638Z,-0.76
2023-02-07T17:33:48.342Z,-0.74
2023-02-07T17:36:52.121Z,-0.70
2023-02-07T17:39:54.392Z,-0.75
2023-02-07T17:42:59.667Z,-0.75
2023-02-07T17:46:02.180Z,-0.78
2023-02-07T17:49:15.848Z,-0.90
2023-02-07T17:52:18.101Z,-0.86
2023-02-07T17:55:21.689Z,-0.70
2023-02-07T17:58:24.014Z,-0.73
2023-02-07T18:01:27.602Z,-0.77
2023-02-07T18:04:30.684Z,-0.83
2023-02-07T18:07:33.074Z,-0.79
2023-02-07T18:10:37.144Z,-0.78
2023-02-07T18:13:48.775Z,-0.78
2023-02-07T18:16:51.747Z,-0.82
2023-02-07T18:19:54.252Z,-0.91
2023-02-07T18:22:58.715Z,-1.15
2023-02-07T18:26:01.673Z,-1.24
2023-02-07T18:29:05.655Z,-1.31
2023-02-07T18:32:08.123Z,-1.36
2023-02-07T18:35:12.064Z,-1.39
2023-02-07T18:38:14.642Z,-1.37
2023-02-07T18:41:23.534Z,-1.55
2023-02-07T18:44:26.195Z,-1.67
2023-02-07T18:47:33.649Z,-1.84
2023-02-07T18:50:38.112Z,-1.99
2023-02-07T18:53:45.927Z,-1.89
2023-02-07T18:56:52.452Z,-1.86
2023-02-07T18:59:56.673Z,-1.95
2023-02-07T19:02:59.548Z,-2.02
2023-02-07T19:06:05.817Z,-2.18
2023-02-07T19:09:09.487Z,-2.32
2023-02-07T19:12:14.398Z,-2.35
2023-02-07T19:15:17.001Z,-2.49
2023-02-07T19:18:19.905Z,-2.50
2023-02-07T19:21:27.298Z,-2.46
2023-02-07T19:24:34.886Z,-2.41
2023-02-07T19:27:37.849Z,-2.53
2023-02-07T19:30:43.073Z,-2.69
2023-02-07T19:33:48.128Z,-2.79
2023-02-07T19:36:50.972Z,-2.88
2023-02-07T19:39:56.132Z,-2.80
2023-02-07T19:42:59.184Z,-2.83
2023-02-07T19:46:02.815Z,-2.88
2023-02-07T19:49:05.551Z,-3.03
2023-02-07T19:52:07.980Z,-3.10
2023-02-07T19:55:10.542Z,-2.98
2023-02-07T19:58:15.385Z,-3.05
2023-02-07T20:01:19.742Z,-3.01
2023-02-07T20:04:23.126Z,-3.00
2023-02-07T20:07:26.232Z,-3.16
2023-02-07T20:10:33.287Z,-3.19
2023-02-07T20:13:38.630Z,-3.19
2023-02-07T20:16:43.213Z,-3.13
2023-02-07T20:19:46.350Z,-3.09
2023-02-07T20:22:53.294Z,-3.07
2023-02-07T20:26:02.694Z,-3.05
2023-02-07T20:29:11.895Z,-3.11
2023-02-07T20:32:15.859Z,-3.09
2023-02-07T20:35:20.117Z,-3.13
2023-02-07T20:38:22.630Z,-3.07
2023-02-07T20:41:34.595Z,-3.16
2023-02-07T20:44:37.116Z,-3.17
2023-02-07T20:47:41.515Z,-3.20
2023-02-07T20:50:46.245Z,-3.14
2023-02-07T20:53:50.298Z,-3.17
2023-02-07T20:56:54.168Z,-3.15
2023-02-07T20:59:59.336Z,-3.29
2023-02-07T21:03:02.480Z,-3.23
2023-02-07T21:06:08.225Z,-3.23
2023-02-07T21:09:12.416Z,-3.33
2023-02-07T21:12:17.150Z,-3.45
2023-02-07T21:15:20.811Z,-3.32
2023-02-07T21:18:26.530Z,-3.40
2023-02-07T21:21:31.881Z,-3.43
2023-02-07T21:24:36.396Z,-3.47
2023-02-07T21:27:41.744Z,-3.40
2023-02-07T21:30:48.923Z,-3.45
2023-02-07T21:37:20.333Z,-3.52
2023-02-07T21:40:28.160Z,-3.49
2023-02-07T21:43:35.890Z,-3.49
2023-02-07T21:46:43.559Z,-3.57
2023-02-07T21:49:52.557Z,-3.62
2023-02-07T21:52:56.128Z,-3.65
2023-02-07T21:56:05.242Z,-3.58
2023-02-07T21:59:16.092Z,-3.61
2023-02-07T22:02:19.561Z,-3.63
2023-02-07T22:05:22.540Z,-3.61
2023-02-07T22:08:26.582Z,-3.58
2023-02-07T22:11:32.772Z,-3.66
2023-02-07T22:14:35.346Z,-3.77
2023-02-07T22:17:38.499Z,-3.82
2023-02-07T22:20:41.804Z,-3.77
2023-02-07T22:23:46.935Z,-3.72
2023-02-07T22:26:51.805Z,-3.76
2023-02-07T22:29:54.837Z,-3.71
2023-02-07T22:32:57.297Z,-3.79
2023-02-07T22:36:00.934Z,-3.71
2023-02-07T22:39:06.987Z,-3.73
2023-02-07T22:42:10.291Z,-3.85
2023-02-07T22:45:13.803Z,-3.89
2023-02-07T22:48:16.981Z,-3.93
2023-02-07T22:51:21.057Z,-3.94
2023-02-07T22:54:24.205Z,-4.03
2023-02-07T22:57:27.476Z,-4.09
2023-02-07T23:00:30.560Z,-4.14
2023-02-07T23:03:34.086Z,-4.32
2023-02-07T23:06:37.423Z,-4.31
2023-02-07T23:09:41.152Z,-4.38
2023-02-07T23:12:45.712Z,-4.38
2023-02-07T23:15:49.355Z,-4.56
2023-02-07T23:18:56.528Z,-4.46
2023-02-07T23:21:59.378Z,-4.52
2023-02-07T23:25:02.198Z,-4.56
2023-02-07T23:28:04.493Z,-4.61
2023-02-07T23:31:09.717Z,-4.54
2023-02-07T23:34:12.109Z,-4.51
2023-02-07T23:37:15.741Z,-4.52
2023-02-07T23:40:18.243Z,-4.50
2023-02-07T23:43:22.822Z,-4.49
2023-02-07T23:46:27.220Z,-4.55
2023-02-07T23:49:30.589Z,-4.68
2023-02-07T23:52:33.143Z,-4.83
2023-02-07T23:55:41.225Z,-4.78
2023-02-07T23:58:44.980Z,-4.72
